Accueil
METAR-TAF:

METAR-TAF

Aéroports :

Aéroport de Magenta

Nouméa, Nouvelle-Calédonie

latitude: 22-15-30S, longitude: 166-28-22E, altitude: 3 m

METAR: absent

Heure: 10:56 (23:56 UTC)

Prévision

Le bulletin a été fait il y a 6 heures et 56 minutes, à 17:00 UTC
Prévision valable du 18 à 18 UTC au 19 à 18 UTC
Vent 10 kt de est
Visibilité 10 km ou plus
Nuages épars à une hauteur de 2500 ft
Nuages épars à une hauteur de 4500 ft
Evoluant progressivement
du 18 à 22 UTC au 18 à 24 UTC
Vent 20 kt de est
Evoluant progressivement
du 19 à 08 UTC au 19 à 10 UTC
Vent 5 kt de est

TAF: NWWM 181700Z 1818/1918 08010KT 9999 SCT025 SCT045 BECMG 1822/1824 10020KT BECMG 1908/1910 09005KT

Observations et prévisions météorologiques de plus de 4000 aéroports (messages METAR et TAF).

Les stations disponibles sont représentées par des disques jaunes et rouges sur la carte.

Passer la souris dessus pour voir le nom de la station.

Cliquer dessus pour voir les observations et prévisions météorologiques.

Pour changer de carte: cliquez sur les boutons verts avec une croix noire pour zoomer, sur le bouton vert avec un tiret pour effectuer un zoom arrière, ou sur les flèches vertes pour les cartes adjacentes.


METAR-TAF: